createdAt,value
2022-09-04T00:02:05.354Z,13.20
2022-09-04T00:04:43.719Z,13.30
2022-09-04T00:07:13.848Z,13.30
2022-09-04T00:10:11.347Z,13.20
2022-09-04T00:12:49.321Z,13.20
2022-09-04T00:15:25.476Z,13.20
2022-09-04T00:17:59.051Z,13.20
2022-09-04T00:20:41.373Z,13.20
2022-09-04T00:23:25.658Z,13.20
2022-09-04T00:26:22.562Z,13.00
2022-09-04T00:28:53.535Z,12.90
2022-09-04T00:31:38.081Z,12.80
2022-09-04T00:34:36.832Z,12.80
2022-09-04T00:37:11.693Z,12.80
2022-09-04T00:40:05.563Z,12.70
2022-09-04T00:43:06.947Z,12.80
2022-09-04T00:46:05.118Z,12.70
2022-09-04T00:49:03.966Z,12.70
2022-09-04T00:51:56.233Z,12.70
2022-09-04T00:54:47.524Z,12.70
2022-09-04T00:57:29.633Z,12.70
2022-09-04T01:00:16.497Z,12.60
2022-09-04T01:03:04.193Z,12.50
2022-09-04T01:06:00.832Z,12.50
2022-09-04T01:08:42.460Z,12.50
2022-09-04T01:11:09.572Z,12.50
2022-09-04T01:13:45.565Z,12.50
2022-09-04T01:16:27.244Z,12.50
2022-09-04T01:19:05.225Z,12.50
2022-09-04T01:21:55.961Z,12.50
2022-09-04T01:24:33.388Z,12.40
2022-09-04T01:27:17.009Z,12.40
2022-09-04T01:29:52.800Z,12.30
2022-09-04T01:32:45.081Z,12.40
2022-09-04T01:35:36.750Z,12.30
2022-09-04T01:38:37.952Z,12.30
2022-09-04T01:41:14.512Z,12.30
2022-09-04T01:43:42.188Z,12.30
2022-09-04T01:46:33.126Z,12.30
2022-09-04T01:49:21.281Z,12.20
2022-09-04T01:52:24.493Z,12.20
2022-09-04T01:55:03.298Z,12.20
2022-09-04T01:57:33.049Z,12.10
2022-09-04T02:00:09.156Z,12.20
2022-09-04T02:02:55.324Z,12.10
2022-09-04T02:05:40.782Z,12.00
2022-09-04T02:08:32.109Z,12.00
2022-09-04T02:11:13.070Z,11.90
2022-09-04T02:14:15.578Z,11.90
2022-09-04T02:17:10.705Z,11.90
2022-09-04T02:19:52.306Z,11.90
2022-09-04T02:22:42.267Z,11.90
2022-09-04T02:25:18.542Z,11.80
2022-09-04T02:27:59.993Z,11.80
2022-09-04T02:30:33.718Z,12.00
2022-09-04T02:33:20.608Z,11.90
2022-09-04T02:36:08.523Z,11.80
2022-09-04T02:39:10.754Z,11.90
2022-09-04T02:41:55.381Z,11.80
2022-09-04T02:44:43.380Z,11.80
2022-09-04T02:47:32.197Z,11.80
2022-09-04T02:50:29.980Z,11.70
2022-09-04T02:53:20.654Z,11.70
2022-09-04T02:56:02.255Z,11.70
2022-09-04T02:58:55.817Z,11.70
2022-09-04T03:01:28.518Z,11.70
2022-09-04T03:04:05.629Z,11.70
2022-09-04T03:07:01.393Z,11.60
2022-09-04T03:09:48.250Z,11.50
2022-09-04T03:12:34.835Z,11.60
2022-09-04T03:15:04.718Z,11.50
2022-09-04T03:18:16.917Z,11.40
2022-09-04T03:20:51.985Z,11.40
2022-09-04T03:23:23.941Z,11.30
2022-09-04T03:26:15.008Z,11.40
2022-09-04T03:28:41.950Z,11.30
2022-09-04T03:31:34.671Z,11.30
2022-09-04T03:34:33.006Z,11.30
2022-09-04T03:37:16.044Z,11.30
2022-09-04T03:39:48.681Z,11.30
2022-09-04T03:42:25.527Z,11.20
2022-09-04T03:45:37.305Z,11.20
2022-09-04T03:48:22.572Z,11.20
2022-09-04T03:50:57.616Z,11.30
2022-09-04T03:53:52.117Z,11.20
2022-09-04T03:56:30.756Z,11.30
2022-09-04T03:59:12.422Z,11.20
2022-09-04T04:01:57.499Z,11.20
2022-09-04T04:05:03.112Z,11.10
2022-09-04T04:08:02.116Z,11.00
2022-09-04T04:10:49.945Z,11.00
2022-09-04T04:13:35.534Z,11.00
2022-09-04T04:16:43.961Z,11.00
2022-09-04T04:19:24.997Z,11.10
2022-09-04T04:22:18.941Z,11.10
2022-09-04T04:24:55.585Z,11.20
2022-09-04T04:27:28.600Z,11.30
2022-09-04T04:29:55.546Z,11.20
2022-09-04T04:32:41.159Z,11.20
2022-09-04T04:35:21.232Z,11.10
2022-09-04T04:38:12.596Z,11.00
2022-09-04T04:41:16.243Z,11.00
2022-09-04T04:44:11.337Z,11.00
2022-09-04T04:46:44.824Z,11.10
2022-09-04T04:49:50.523Z,11.10
2022-09-04T04:52:50.031Z,10.90
2022-09-04T04:55:34.809Z,11.00
2022-09-04T04:58:11.387Z,10.90
2022-09-04T05:00:58.509Z,10.90
2022-09-04T05:03:32.325Z,11.00
2022-09-04T05:06:15.608Z,11.10
2022-09-04T05:09:20.070Z,11.00
2022-09-04T05:12:11.197Z,11.10
2022-09-04T05:14:50.934Z,11.20
2022-09-04T05:17:40.995Z,11.20
2022-09-04T05:20:38.493Z,11.30
2022-09-04T05:23:44.266Z,11.40
2022-09-04T05:26:36.080Z,11.30
2022-09-04T05:29:32.442Z,11.40
2022-09-04T05:32:05.566Z,11.40
2022-09-04T05:34:51.992Z,11.50
2022-09-04T05:37:29.347Z,11.50
2022-09-04T05:40:18.398Z,11.70
2022-09-04T05:43:12.515Z,11.80
2022-09-04T05:46:16.922Z,12.00
2022-09-04T05:49:01.221Z,12.10
2022-09-04T05:51:44.055Z,12.20
2022-09-04T05:54:22.111Z,12.20
2022-09-04T05:57:10.320Z,12.20
2022-09-04T06:00:00.111Z,12.20
2022-09-04T06:03:12.180Z,12.30
2022-09-04T06:06:05.841Z,12.30
2022-09-04T06:08:50.824Z,12.20
2022-09-04T06:11:45.098Z,12.40
2022-09-04T06:14:12.052Z,12.40
2022-09-04T06:16:47.669Z,12.60
2022-09-04T06:19:37.587Z,12.60
2022-09-04T06:22:33.412Z,12.80
2022-09-04T06:25:41.055Z,12.90
2022-09-04T06:28:37.222Z,13.10
2022-09-04T06:31:19.586Z,13.10
2022-09-04T06:34:21.691Z,13.20
2022-09-04T06:36:55.508Z,13.30
2022-09-04T06:39:34.466Z,13.20
2022-09-04T06:42:09.505Z,13.40
2022-09-04T06:44:59.801Z,13.50
2022-09-04T06:47:48.505Z,13.60
2022-09-04T06:50:30.996Z,13.70
2022-09-04T06:53:42.911Z,13.80
2022-09-04T06:56:48.040Z,14.00
2022-09-04T06:59:36.493Z,14.20
2022-09-04T07:02:18.918Z,14.20
2022-09-04T07:04:54.567Z,14.30
2022-09-04T07:07:38.951Z,14.30
2022-09-04T07:10:37.092Z,14.50
2022-09-04T07:13:23.998Z,14.60
2022-09-04T07:16:15.691Z,14.80
2022-09-04T07:19:02.149Z,14.90
2022-09-04T07:21:52.291Z,14.90
2022-09-04T07:24:49.208Z,15.10
2022-09-04T07:27:52.361Z,15.20
2022-09-04T07:30:20.284Z,15.40
2022-09-04T07:32:58.115Z,15.50
2022-09-04T07:35:56.954Z,15.60
2022-09-04T07:38:52.675Z,15.80
2022-09-04T07:41:42.362Z,15.90
2022-09-04T07:44:44.816Z,16.00
2022-09-04T07:47:43.041Z,16.30
2022-09-04T07:50:14.891Z,16.30
2022-09-04T07:53:03.663Z,16.40
2022-09-04T07:55:34.915Z,16.50
2022-09-04T07:58:07.896Z,16.60
2022-09-04T08:00:52.021Z,16.60
2022-09-04T08:03:28.249Z,16.90
2022-09-04T08:06:12.044Z,17.00
2022-09-04T08:09:25.424Z,17.00
2022-09-04T08:12:15.253Z,17.20
2022-09-04T08:15:04.189Z,17.20
2022-09-04T08:17:43.572Z,17.40
2022-09-04T08:20:24.461Z,17.60
2022-09-04T08:23:02.226Z,17.70
2022-09-04T08:26:20.365Z,18.00
2022-09-04T08:28:46.976Z,18.00
2022-09-04T08:31:36.661Z,18.60
2022-09-04T08:34:07.585Z,18.80
2022-09-04T08:36:45.490Z,19.00
2022-09-04T08:39:24.372Z,19.50
2022-09-04T08:42:18.289Z,20.00
2022-09-04T08:45:06.917Z,20.00
2022-09-04T08:47:58.409Z,20.40
2022-09-04T08:50:43.914Z,20.50
2022-09-04T08:53:46.549Z,20.60
2022-09-04T08:56:37.742Z,21.30
2022-09-04T08:59:23.680Z,21.30
2022-09-04T09:02:26.861Z,21.70
2022-09-04T09:05:14.883Z,22.00
2022-09-04T09:07:50.189Z,21.80
2022-09-04T09:10:35.883Z,22.20
2022-09-04T09:13:11.665Z,21.40
2022-09-04T09:16:16.403Z,22.10
2022-09-04T09:19:05.084Z,22.70
2022-09-04T09:22:08.371Z,22.80
2022-09-04T09:25:07.415Z,23.50
2022-09-04T09:28:11.696Z,23.50
2022-09-04T09:31:07.637Z,23.30
2022-09-04T09:34:00.454Z,24.00
2022-09-04T09:37:02.877Z,24.20
2022-09-04T09:40:04.235Z,24.50
2022-09-04T09:42:39.241Z,24.00
2022-09-04T09:45:40.138Z,24.90
2022-09-04T09:48:33.117Z,25.20
2022-09-04T09:51:31.038Z,25.70
2022-09-04T09:54:25.498Z,25.20
2022-09-04T09:57:33.525Z,25.80
2022-09-04T10:00:18.972Z,25.30
2022-09-04T10:03:07.629Z,25.10
2022-09-04T10:06:08.573Z,24.70
2022-09-04T10:08:54.113Z,25.10
2022-09-04T10:12:07.535Z,24.00
2022-09-04T10:15:04.581Z,24.60
2022-09-04T10:18:03.258Z,25.70
2022-09-04T10:20:42.413Z,27.00
2022-09-04T10:23:37.732Z,26.80
2022-09-04T10:26:04.719Z,25.50
2022-09-04T10:28:40.801Z,25.80
2022-09-04T10:31:38.088Z,25.60
2022-09-04T10:34:29.042Z,26.40
2022-09-04T10:37:11.841Z,27.10
2022-09-04T10:40:29.693Z,26.90
2022-09-04T10:43:17.069Z,26.00
2022-09-04T10:45:59.281Z,24.90
2022-09-04T10:48:31.755Z,24.20
2022-09-04T10:51:27.517Z,25.50
2022-09-04T10:54:14.076Z,26.40
2022-09-04T10:56:59.263Z,24.90
2022-09-04T10:59:40.012Z,23.80
2022-09-04T11:02:22.654Z,24.60
2022-09-04T11:05:15.627Z,24.50
2022-09-04T11:08:05.984Z,24.60
2022-09-04T11:11:09.255Z,24.20
2022-09-04T11:13:49.328Z,23.70
2022-09-04T11:16:39.406Z,23.70
2022-09-04T11:19:36.431Z,24.30
2022-09-04T11:22:40.755Z,24.50
2022-09-04T11:25:19.319Z,24.10
2022-09-04T11:28:23.807Z,24.90
2022-09-04T11:31:04.453Z,25.50
2022-09-04T11:33:53.229Z,26.80
2022-09-04T11:36:35.465Z,26.70
2022-09-04T11:39:14.492Z,26.10
2022-09-04T11:41:56.526Z,25.90
2022-09-04T11:44:29.738Z,26.30
2022-09-04T11:47:08.164Z,26.40
2022-09-04T11:49:44.945Z,26.10
2022-09-04T11:52:26.710Z,26.10
2022-09-04T11:55:05.290Z,25.90
2022-09-04T11:58:05.300Z,26.30
2022-09-04T12:01:03.972Z,25.10
2022-09-04T12:03:49.745Z,25.40
2022-09-04T12:06:16.381Z,25.70
2022-09-04T12:09:01.402Z,25.70
2022-09-04T12:12:12.866Z,26.60
2022-09-04T12:14:57.802Z,26.40
2022-09-04T12:17:49.432Z,27.20
2022-09-04T12:20:47.934Z,27.00
2022-09-04T12:23:23.788Z,27.40
2022-09-04T12:26:23.593Z,27.20
2022-09-04T12:29:18.561Z,27.10
2022-09-04T12:32:22.792Z,27.90
2022-09-04T12:35:31.168Z,27.30
2022-09-04T12:38:24.791Z,26.50
2022-09-04T12:41:30.864Z,26.60
2022-09-04T12:44:08.931Z,26.80
2022-09-04T12:47:13.907Z,26.80
2022-09-04T12:50:00.305Z,26.70
2022-09-04T12:52:57.503Z,26.70
2022-09-04T12:55:36.173Z,26.30
2022-09-04T12:58:34.080Z,26.60
2022-09-04T13:01:19.311Z,27.10
2022-09-04T13:04:00.125Z,27.20
2022-09-04T13:06:53.415Z,27.40
2022-09-04T13:09:26.078Z,26.80
2022-09-04T13:11:58.632Z,26.10
2022-09-04T13:14:46.776Z,26.10
2022-09-04T13:17:19.631Z,26.60
2022-09-04T13:20:00.430Z,26.50
2022-09-04T13:22:49.347Z,26.40
2022-09-04T13:25:55.595Z,26.90
2022-09-04T13:28:40.335Z,27.50
2022-09-04T13:31:33.428Z,27.00
2022-09-04T13:34:18.864Z,26.90
2022-09-04T13:37:05.079Z,26.80
2022-09-04T13:40:01.330Z,26.40
2022-09-04T13:42:37.420Z,25.90
2022-09-04T13:45:11.956Z,26.00
2022-09-04T13:47:45.037Z,25.80
2022-09-04T13:50:26.304Z,25.20
2022-09-04T13:53:02.948Z,25.00
2022-09-04T13:55:40.505Z,25.20
2022-09-04T13:58:16.877Z,25.20
2022-09-04T14:00:57.121Z,24.90
2022-09-04T14:03:36.329Z,24.80
2022-09-04T14:06:07.198Z,24.90
2022-09-04T14:08:37.004Z,24.70
2022-09-04T14:11:13.111Z,24.60
2022-09-04T14:13:42.598Z,24.60
2022-09-04T14:16:12.130Z,25.00
2022-09-04T14:18:48.402Z,25.50
2022-09-04T14:21:42.713Z,25.50
2022-09-04T14:24:33.088Z,25.30
2022-09-04T14:27:23.876Z,25.10
2022-09-04T14:30:06.391Z,24.70
2022-09-04T14:32:41.045Z,24.50
2022-09-04T14:35:28.645Z,24.60
2022-09-04T14:38:27.875Z,25.20
2022-09-04T14:41:07.513Z,25.20
2022-09-04T14:43:50.191Z,24.90
2022-09-04T14:46:32.268Z,25.30
2022-09-04T14:49:06.921Z,25.10
2022-09-04T14:51:46.240Z,25.10
2022-09-04T14:54:23.849Z,24.90
2022-09-04T14:57:01.533Z,25.30
2022-09-04T14:59:43.539Z,25.30
2022-09-04T15:02:15.910Z,25.00
2022-09-04T15:04:59.536Z,25.00
2022-09-04T15:07:49.531Z,25.00
2022-09-04T15:10:24.862Z,25.30
2022-09-04T15:13:12.433Z,25.60
2022-09-04T15:15:43.039Z,26.00
2022-09-04T15:18:23.742Z,26.40
2022-09-04T15:20:59.310Z,26.30
2022-09-04T15:23:37.364Z,26.60
2022-09-04T15:26:18.623Z,26.80
2022-09-04T15:29:14.240Z,25.90
2022-09-04T15:31:42.767Z,25.70
2022-09-04T15:34:19.819Z,26.10
2022-09-04T15:36:47.753Z,26.50
2022-09-04T15:39:36.448Z,26.40
2022-09-04T15:42:03.578Z,25.60
2022-09-04T15:44:42.607Z,25.70
2022-09-04T15:47:36.239Z,26.00
2022-09-04T15:50:16.084Z,26.10
2022-09-04T15:53:29.398Z,26.40
2022-09-04T15:56:27.453Z,26.40
2022-09-04T15:59:29.817Z,26.20
2022-09-04T16:02:12.826Z,26.80
2022-09-04T16:04:57.495Z,26.90
2022-09-04T16:08:06.354Z,27.00
2022-09-04T16:11:02.781Z,26.40
2022-09-04T16:13:42.240Z,26.50
2022-09-04T16:16:26.000Z,27.10
2022-09-04T16:19:22.664Z,28.00
2022-09-04T16:22:00.160Z,28.90
2022-09-04T16:24:41.474Z,29.30
2022-09-04T16:27:13.740Z,28.90
2022-09-04T16:29:53.476Z,29.70
2022-09-04T16:32:22.696Z,30.20
2022-09-04T16:34:57.965Z,30.20
2022-09-04T16:37:35.008Z,30.60
2022-09-04T16:40:26.355Z,31.30
2022-09-04T16:43:16.603Z,31.40
2022-09-04T16:46:27.377Z,31.20
2022-09-04T16:49:08.029Z,30.90
2022-09-04T16:51:42.068Z,30.70
2022-09-04T16:54:31.156Z,30.40
2022-09-04T16:57:14.594Z,30.40
2022-09-04T17:00:02.851Z,30.30
2022-09-04T17:02:51.072Z,29.90
2022-09-04T17:05:35.037Z,29.60
2022-09-04T17:08:08.000Z,29.30
2022-09-04T17:10:49.612Z,29.20
2022-09-04T17:13:27.959Z,28.20
2022-09-04T17:16:00.847Z,28.20
2022-09-04T17:18:30.170Z,27.50
2022-09-04T17:22:57.704Z,27.00
2022-09-04T17:28:56.809Z,27.00
2022-09-04T17:29:16.013Z,27.20
2022-09-04T17:30:25.584Z,26.60
2022-09-04T17:36:34.873Z,25.80
2022-09-04T17:40:33.179Z,24.70
2022-09-04T17:40:46.388Z,23.60
2022-09-04T17:42:09.945Z,21.90
2022-09-04T17:44:47.026Z,21.80
2022-09-04T17:47:26.654Z,21.50
2022-09-04T17:49:55.371Z,21.10
2022-09-04T17:52:28.623Z,20.70
2022-09-04T17:55:14.344Z,20.60
2022-09-04T17:57:53.018Z,20.40
2022-09-04T18:00:25.160Z,20.20
2022-09-04T18:03:22.055Z,19.90
2022-09-04T18:05:53.768Z,19.80
2022-09-04T18:08:48.401Z,19.60
2022-09-04T18:11:31.229Z,19.50
2022-09-04T18:14:15.367Z,19.20
2022-09-04T18:17:11.607Z,19.20
2022-09-04T18:19:43.075Z,19.00
2022-09-04T18:22:31.873Z,18.90
2022-09-04T18:25:25.778Z,18.80
2022-09-04T18:28:11.765Z,18.80
2022-09-04T18:37:08.841Z,18.60
2022-09-04T18:37:25.491Z,18.40
2022-09-04T18:37:44.318Z,18.30
2022-09-04T18:40:53.527Z,18.20
2022-09-04T18:50:21.982Z,18.10
2022-09-04T18:50:36.971Z,18.00
2022-09-04T18:50:47.147Z,18.10
2022-09-04T18:52:00.727Z,17.80
2022-09-04T18:54:41.675Z,17.80
2022-09-04T18:57:49.318Z,17.60
2022-09-04T19:00:37.183Z,17.40
2022-09-04T19:03:18.996Z,17.00
2022-09-04T19:05:48.798Z,16.90
2022-09-04T19:08:26.653Z,16.80
2022-09-04T19:10:57.864Z,16.70
2022-09-04T19:13:27.609Z,16.60
2022-09-04T19:16:06.871Z,16.50
2022-09-04T19:18:44.041Z,16.50
2022-09-04T19:21:14.610Z,16.50
2022-09-04T19:23:51.602Z,16.50
2022-09-04T19:26:27.108Z,16.50
2022-09-04T19:28:57.321Z,16.50
2022-09-04T19:31:42.095Z,16.50
2022-09-04T19:34:19.087Z,16.40
2022-09-04T19:36:51.773Z,16.40
2022-09-04T19:46:05.271Z,16.10
2022-09-04T19:46:07.277Z,16.30
2022-09-04T19:53:17.833Z,16.10
2022-09-04T19:53:30.628Z,16.00
2022-09-04T19:55:23.478Z,16.00
2022-09-04T19:58:09.965Z,15.90
2022-09-04T20:00:45.989Z,15.90
2022-09-04T20:03:36.549Z,15.80
2022-09-04T20:06:31.769Z,15.80
2022-09-04T20:08:58.719Z,15.80
2022-09-04T20:11:35.648Z,15.80
2022-09-04T20:14:14.401Z,15.70
2022-09-04T20:17:20.301Z,15.70
2022-09-04T20:19:56.982Z,15.50
2022-09-04T20:22:49.615Z,15.40
2022-09-04T20:25:24.310Z,15.40
2022-09-04T20:28:22.750Z,15.40
2022-09-04T20:31:28.457Z,15.40
2022-09-04T20:34:00.306Z,15.30
2022-09-04T20:36:34.807Z,15.30
2022-09-04T20:39:18.618Z,15.30
2022-09-04T20:41:45.228Z,15.30
2022-09-04T20:44:28.245Z,15.30
2022-09-04T20:50:30.772Z,15.30
2022-09-04T20:52:49.568Z,15.30
2022-09-04T20:53:20.620Z,15.10
2022-09-04T20:56:31.599Z,14.90
2022-09-04T21:03:12.773Z,14.80
2022-09-04T21:03:23.364Z,14.90
2022-09-04T21:05:54.221Z,14.90
2022-09-04T21:08:35.061Z,14.90
2022-09-04T21:11:39.416Z,14.80
2022-09-04T21:14:22.311Z,14.80
2022-09-04T21:17:35.301Z,14.70
2022-09-04T21:20:27.069Z,14.70
2022-09-04T21:23:09.057Z,14.60
2022-09-04T21:26:15.958Z,14.70
2022-09-04T21:28:51.507Z,14.50
2022-09-04T21:31:24.328Z,14.40
2022-09-04T21:33:54.374Z,14.40
2022-09-04T21:36:38.399Z,14.30
2022-09-04T21:39:23.678Z,14.00
2022-09-04T21:41:52.600Z,13.90
2022-09-04T21:44:52.589Z,14.00
2022-09-04T21:47:44.715Z,14.10
2022-09-04T21:50:38.111Z,14.20
2022-09-04T21:53:32.506Z,14.10
2022-09-04T21:57:47.048Z,14.10
2022-09-04T22:02:43.808Z,14.10
2022-09-04T22:02:52.653Z,14.10
2022-09-04T22:05:53.748Z,14.00
2022-09-04T22:13:26.709Z,14.00
2022-09-04T22:13:45.900Z,14.00
2022-09-04T22:14:39.359Z,13.80
2022-09-04T22:17:14.390Z,13.70
2022-09-04T22:19:52.499Z,13.70
2022-09-04T22:23:04.283Z,13.70
2022-09-04T22:26:17.117Z,13.60
2022-09-04T22:28:59.016Z,13.70
2022-09-04T22:31:29.647Z,13.60
2022-09-04T22:34:24.889Z,13.40
2022-09-04T22:37:18.989Z,13.30
2022-09-04T22:39:51.925Z,13.20
2022-09-04T22:42:30.986Z,13.30
2022-09-04T22:45:22.212Z,13.20
2022-09-04T22:48:07.147Z,13.20
2022-09-04T22:50:51.683Z,13.20
2022-09-04T22:53:36.424Z,13.20
2022-09-04T22:56:23.011Z,13.20
2022-09-04T22:59:27.713Z,13.30
2022-09-04T23:02:48.432Z,13.30
2022-09-04T23:05:41.002Z,13.30
2022-09-04T23:13:49.733Z,13.30
2022-09-04T23:14:02.505Z,13.20
2022-09-04T23:14:21.562Z,13.20
2022-09-04T23:17:05.617Z,13.10
2022-09-04T23:26:31.013Z,13.10
2022-09-04T23:26:45.671Z,13.10
2022-09-04T23:26:50.368Z,13.00
2022-09-04T23:29:21.300Z,13.00
2022-09-04T23:32:07.358Z,13.00
2022-09-04T23:34:57.735Z,13.00
2022-09-04T23:38:03.300Z,13.00
2022-09-04T23:40:42.704Z,12.90
2022-09-04T23:43:33.484Z,12.90
2022-09-04T23:46:18.391Z,12.90
2022-09-04T23:49:06.965Z,12.80
2022-09-04T23:51:45.820Z,12.80
2022-09-04T23:54:37.744Z,12.80
2022-09-04T23:57:26.164Z,12.70
